Rubiacea, Brazil
Current Conditions -  °F | °C
As of 5:10 PM on Saturday 25 Oct 2014 (Local Time) from SBAU Reporting Station
Drizzle Drizzle  
Wind Chill: 75°   Ceiling: 3000
Heat Index: 75°   Visibility: 5mi
Dew Point: 64°   Wind: 1mph
Humidity: 69%   Direction: 60°ENE
Pressure: 29.94"   Gusts: NA
Location:  21.3°S, 50.73°W
Report Text: SBAU 251910Z 06001KT 8000 -DZ SCT012 FEW025TCU BKN030 OVC090 24/18 Q1014
Loading
Personal Weather Stations






























Interactive Weather Map
Tropical Storm Tracking
New forecast layout! Learn more

10-Day Weather Forecast

Advertisements
Track Severe Weather on mobile